createdAt,value
2019-02-14T00:01:21.983Z,23.30
2019-02-14T00:03:51.682Z,21.77
2019-02-14T00:06:21.274Z,25.20
2019-02-14T00:08:51.055Z,17.37
2019-02-14T00:11:20.669Z,19.50
2019-02-14T00:13:50.438Z,20.52
2019-02-14T00:16:20.146Z,17.87
2019-02-14T00:18:49.972Z,20.97
2019-02-14T00:21:19.706Z,20.52
2019-02-14T00:23:49.486Z,23.95
2019-02-14T00:26:19.058Z,17.27
2019-02-14T00:28:48.635Z,20.62
2019-02-14T00:31:18.326Z,18.35
2019-02-14T00:33:47.903Z,20.20
2019-02-14T00:36:17.621Z,19.52
2019-02-14T00:38:47.231Z,21.33
2019-02-14T00:41:16.912Z,20.23
2019-02-14T00:43:46.597Z,20.05
2019-02-14T00:46:16.264Z,18.87
2019-02-14T00:48:45.848Z,23.87
2019-02-14T00:51:15.554Z,18.55
2019-02-14T00:53:45.112Z,20.57
2019-02-14T00:56:14.856Z,18.87
2019-02-14T00:58:44.517Z,18.00
2019-02-14T01:01:14.300Z,21.40
2019-02-14T01:03:47.992Z,22.67
2019-02-14T01:06:17.596Z,18.73
2019-02-14T01:08:47.335Z,22.98
2019-02-14T01:11:17.981Z,19.62
2019-02-14T01:13:55.665Z,22.60
2019-02-14T01:16:27.267Z,21.68
2019-02-14T01:18:57.005Z,21.02
2019-02-14T01:21:26.575Z,23.95
2019-02-14T01:23:56.371Z,19.35
2019-02-14T01:26:25.938Z,20.92
2019-02-14T01:28:56.659Z,20.52
2019-02-14T01:31:26.254Z,21.60
2019-02-14T01:33:55.967Z,20.92
2019-02-14T01:36:25.646Z,20.15
2019-02-14T01:38:55.340Z,19.75
2019-02-14T01:41:25.895Z,24.77
2019-02-14T01:43:55.524Z,24.65
2019-02-14T01:46:25.295Z,22.10
2019-02-14T01:48:54.839Z,19.02
2019-02-14T01:51:24.640Z,24.10
2019-02-14T01:53:54.262Z,23.60
2019-02-14T01:56:24.041Z,20.25
2019-02-14T01:58:53.617Z,20.10
2019-02-14T02:01:23.295Z,20.27
2019-02-14T02:03:52.872Z,19.35
2019-02-14T02:06:22.520Z,21.80
2019-02-14T02:08:52.098Z,20.85
2019-02-14T02:11:23.624Z,21.00
2019-02-14T02:13:53.075Z,20.95
2019-02-14T02:16:22.650Z,18.15
2019-02-14T02:18:52.322Z,21.33
2019-02-14T02:21:21.861Z,21.00
2019-02-14T02:23:51.465Z,21.62
2019-02-14T02:26:20.980Z,20.30
2019-02-14T02:28:50.655Z,17.35
2019-02-14T02:31:20.206Z,17.25
2019-02-14T02:33:49.874Z,17.77
2019-02-14T02:36:24.095Z,19.55
2019-02-14T02:38:53.816Z,17.65
2019-02-14T02:41:24.058Z,16.00
2019-02-14T02:43:54.992Z,17.90
2019-02-14T02:46:24.547Z,14.43
2019-02-14T02:48:54.290Z,14.53
2019-02-14T02:51:24.081Z,14.65
2019-02-14T02:53:53.671Z,15.40
2019-02-14T02:56:23.443Z,15.13
2019-02-14T02:58:53.948Z,12.45
2019-02-14T03:01:27.683Z,12.15
2019-02-14T03:03:57.291Z,15.35
2019-02-14T03:06:27.004Z,13.95
2019-02-14T03:08:57.676Z,13.15
2019-02-14T03:11:27.395Z,11.53
2019-02-14T03:13:57.014Z,11.88
2019-02-14T03:16:26.783Z,14.25
2019-02-14T03:18:56.398Z,17.05
2019-02-14T03:21:27.110Z,15.23
2019-02-14T03:26:33.124Z,16.40
2019-02-14T03:29:02.811Z,17.62
2019-02-14T03:31:54.644Z,16.80
2019-02-14T03:34:25.463Z,16.90
2019-02-14T03:36:55.104Z,21.07
2019-02-14T03:39:24.688Z,19.35
2019-02-14T03:41:54.426Z,14.83
2019-02-14T03:44:24.656Z,15.65
2019-02-14T03:46:54.547Z,15.23
2019-02-14T03:49:24.362Z,19.35
2019-02-14T03:51:54.109Z,14.23
2019-02-14T03:54:23.950Z,18.85
2019-02-14T03:56:53.817Z,21.70
2019-02-14T03:59:23.719Z,16.07
2019-02-14T04:01:53.336Z,17.48
2019-02-14T04:04:23.154Z,15.63
2019-02-14T04:06:52.871Z,16.40
2019-02-14T04:09:23.092Z,14.53
2019-02-14T04:11:52.716Z,15.23
2019-02-14T04:14:23.550Z,19.57
2019-02-14T04:16:53.222Z,15.85
2019-02-14T04:19:22.948Z,22.35
2019-02-14T04:21:52.755Z,14.83
2019-02-14T04:24:22.703Z,16.48
2019-02-14T04:26:52.921Z,12.63
2019-02-14T04:29:22.708Z,14.03
2019-02-14T04:31:53.538Z,12.93
2019-02-14T04:34:23.334Z,15.00
2019-02-14T04:36:53.182Z,14.83
2019-02-14T04:39:23.262Z,12.18
2019-02-14T04:41:54.404Z,14.07
2019-02-14T04:44:24.219Z,12.63
2019-02-14T04:46:55.103Z,13.88
2019-02-14T04:49:24.899Z,13.85
2019-02-14T04:51:54.722Z,12.55
2019-02-14T04:54:24.446Z,12.33
2019-02-14T04:56:54.127Z,18.55
2019-02-14T04:59:23.949Z,17.82
2019-02-14T05:01:54.704Z,16.42
2019-02-14T05:04:24.476Z,12.20
2019-02-14T05:06:54.149Z,14.03
2019-02-14T05:09:25.123Z,14.03
2019-02-14T05:11:55.830Z,16.73
2019-02-14T05:14:25.746Z,11.57
2019-02-14T05:16:55.479Z,14.33
2019-02-14T05:19:25.066Z,10.98
2019-02-14T05:22:19.306Z,14.87
2019-02-14T05:24:49.088Z,11.95
2019-02-14T05:27:19.860Z,20.80
2019-02-14T05:29:49.535Z,14.68
2019-02-14T05:32:19.268Z,20.20
2019-02-14T05:34:48.959Z,16.60
2019-02-14T05:37:18.807Z,15.78
2019-02-14T05:39:49.633Z,20.75
2019-02-14T05:42:20.088Z,21.80
2019-02-14T05:44:50.354Z,19.67
2019-02-14T05:47:20.248Z,15.98
2019-02-14T05:49:50.128Z,21.97
2019-02-14T05:52:21.025Z,18.92
2019-02-14T05:54:51.099Z,18.67
2019-02-14T05:57:20.784Z,17.48
2019-02-14T05:59:50.365Z,20.88
2019-02-14T06:02:20.080Z,14.98
2019-02-14T06:04:49.781Z,17.57
2019-02-14T06:07:19.543Z,13.62
2019-02-14T06:09:49.451Z,18.80
2019-02-14T06:12:19.353Z,19.55
2019-02-14T06:14:49.284Z,13.13
2019-02-14T06:18:33.238Z,15.63
2019-02-14T06:21:03.046Z,15.48
2019-02-14T06:23:33.719Z,18.00
2019-02-14T06:26:03.513Z,17.90
2019-02-14T06:28:33.370Z,19.62
2019-02-14T06:31:03.125Z,25.75
2019-02-14T06:33:32.939Z,17.00
2019-02-14T06:36:02.787Z,14.90
2019-02-14T06:38:32.667Z,21.15
2019-02-14T06:41:03.642Z,16.95
2019-02-14T06:43:34.248Z,16.70
2019-02-14T06:46:04.373Z,17.00
2019-02-14T06:48:34.405Z,22.27
2019-02-14T06:51:04.411Z,17.85
2019-02-14T06:53:34.863Z,17.92
2019-02-14T06:56:04.858Z,15.48
2019-02-14T06:58:35.355Z,21.55
2019-02-14T07:01:05.314Z,24.33
2019-02-14T07:03:35.852Z,21.20
2019-02-14T07:06:05.536Z,17.30
2019-02-14T07:08:35.447Z,16.35
2019-02-14T07:11:05.166Z,17.10
2019-02-14T07:13:34.876Z,20.60
2019-02-14T07:16:04.634Z,16.40
2019-02-14T07:18:35.182Z,20.23
2019-02-14T07:21:05.037Z,17.70
2019-02-14T07:23:34.905Z,21.83
2019-02-14T07:26:05.723Z,19.50
2019-02-14T07:28:35.564Z,18.23
2019-02-14T07:31:05.362Z,21.10
2019-02-14T07:33:35.218Z,15.90
2019-02-14T07:36:05.285Z,16.87
2019-02-14T07:38:35.166Z,18.03
2019-02-14T07:41:05.184Z,18.00
2019-02-14T07:43:35.122Z,20.83
2019-02-14T07:46:05.012Z,16.90
2019-02-14T07:48:34.715Z,24.47
2019-02-14T07:51:04.524Z,24.10
2019-02-14T07:53:36.080Z,17.40
2019-02-14T07:56:05.896Z,17.93
2019-02-14T07:58:36.418Z,19.40
2019-02-14T08:01:06.479Z,16.53
2019-02-14T08:03:36.423Z,16.60
2019-02-14T08:06:08.255Z,17.10
2019-02-14T08:08:38.311Z,22.23
2019-02-14T08:11:08.287Z,16.00
2019-02-14T08:13:38.685Z,15.60
2019-02-14T08:16:10.216Z,22.20
2019-02-14T08:18:40.151Z,26.70
2019-02-14T08:21:09.963Z,21.63
2019-02-14T08:23:40.533Z,26.80
2019-02-14T08:26:11.496Z,33.53
2019-02-14T08:28:41.249Z,25.60
2019-02-14T08:31:10.883Z,47.47
2019-02-14T08:33:40.667Z,25.43
2019-02-14T08:36:11.636Z,16.57
2019-02-14T08:38:43.244Z,20.53
2019-02-14T08:41:13.109Z,29.47
2019-02-14T08:43:43.361Z,34.03
2019-02-14T08:46:14.070Z,15.83
2019-02-14T08:48:43.820Z,22.70
2019-02-14T08:51:13.384Z,43.07
2019-02-14T08:53:44.184Z,27.90
2019-02-14T08:56:14.098Z,32.20
2019-02-14T08:58:44.508Z,39.60
2019-02-14T09:01:14.626Z,28.67
2019-02-14T09:03:44.214Z,32.90
2019-02-14T09:06:14.142Z,23.10
2019-02-14T09:08:43.899Z,38.87
2019-02-14T09:11:13.865Z,53.53
2019-02-14T09:13:43.902Z,36.67
2019-02-14T09:16:14.157Z,47.60
2019-02-14T09:18:43.956Z,38.50
2019-02-14T09:21:13.648Z,42.13
2019-02-14T09:23:43.440Z,32.37
2019-02-14T09:26:13.464Z,38.03
2019-02-14T09:28:44.003Z,21.77
2019-02-14T09:31:13.910Z,49.03
2019-02-14T09:33:44.001Z,45.93
2019-02-14T09:36:13.782Z,33.47
2019-02-14T09:38:43.595Z,41.50
2019-02-14T09:41:13.922Z,45.03
2019-02-14T09:43:43.861Z,19.70
2019-02-14T09:46:14.181Z,49.00
2019-02-14T09:48:43.951Z,36.97
2019-02-14T09:51:13.714Z,56.50
2019-02-14T09:53:43.471Z,44.07
2019-02-14T09:56:13.313Z,24.17
2019-02-14T09:58:42.972Z,27.70
2019-02-14T10:01:12.965Z,45.17
2019-02-14T10:03:43.298Z,57.50
2019-02-14T10:06:13.176Z,22.90
2019-02-14T10:08:42.995Z,23.87
2019-02-14T10:11:13.183Z,31.97
2019-02-14T10:13:44.035Z,16.47
2019-02-14T10:16:13.891Z,21.20
2019-02-14T10:18:43.675Z,31.07
2019-02-14T10:21:14.592Z,40.90
2019-02-14T10:23:44.489Z,27.93
2019-02-14T10:26:15.531Z,24.17
2019-02-14T10:28:45.654Z,28.63
2019-02-14T10:31:15.517Z,11.47
2019-02-14T10:33:45.471Z,44.43
2019-02-14T10:36:15.149Z,21.67
2019-02-14T10:38:45.038Z,28.37
2019-02-14T10:41:14.789Z,26.60
2019-02-14T10:43:48.761Z,18.13
2019-02-14T10:46:17.796Z,20.00
2019-02-14T10:48:49.827Z,14.77
2019-02-14T10:51:19.576Z,36.70
2019-02-14T10:53:49.703Z,32.90
2019-02-14T10:56:19.587Z,31.90
2019-02-14T10:58:51.780Z,17.03
2019-02-14T11:01:21.761Z,19.53
2019-02-14T11:03:51.677Z,20.93
2019-02-14T11:06:21.676Z,22.00
2019-02-14T11:08:51.486Z,34.00
2019-02-14T11:11:21.322Z,20.20
2019-02-14T11:13:51.416Z,32.37
2019-02-14T11:16:21.221Z,10.67
2019-02-14T11:18:51.211Z,20.77
2019-02-14T11:21:21.068Z,32.10
2019-02-14T11:23:50.707Z,38.50
2019-02-14T11:26:20.490Z,20.37
2019-02-14T11:28:50.328Z,20.30
2019-02-14T11:31:20.340Z,28.63
2019-02-14T11:33:50.451Z,20.10
2019-02-14T11:36:20.442Z,16.67
2019-02-14T11:38:51.166Z,15.60
2019-02-14T11:41:20.951Z,21.80
2019-02-14T11:43:51.316Z,20.00
2019-02-14T11:46:21.496Z,16.00
2019-02-14T11:48:51.518Z,18.60
2019-02-14T11:51:21.542Z,13.17
2019-02-14T11:53:51.267Z,12.30
2019-02-14T11:56:22.056Z,13.73
2019-02-14T11:58:52.200Z,12.00
2019-02-14T12:01:22.180Z,10.33
2019-02-14T12:03:52.862Z,15.27
2019-02-14T12:06:22.593Z,8.63
2019-02-14T12:09:00.379Z,13.63
2019-02-14T12:11:29.514Z,10.20
2019-02-14T12:13:59.372Z,16.97
2019-02-14T12:16:29.016Z,7.37
2019-02-14T12:18:59.225Z,18.13
2019-02-14T12:21:28.851Z,9.60
2019-02-14T12:23:59.484Z,9.30
2019-02-14T12:26:29.138Z,7.70
2019-02-14T12:29:00.329Z,11.27
2019-02-14T12:31:29.997Z,8.20
2019-02-14T12:34:00.028Z,10.67
2019-02-14T12:36:29.899Z,17.27
2019-02-14T12:41:31.105Z,8.43
2019-02-14T12:44:00.781Z,10.00
2019-02-14T12:46:31.199Z,5.70
2019-02-14T12:49:01.412Z,7.03
2019-02-14T12:51:33.481Z,11.43
2019-02-14T12:54:03.455Z,5.70
2019-02-14T12:56:33.802Z,12.83
2019-02-14T12:59:04.307Z,14.90
2019-02-14T13:01:34.202Z,8.00
2019-02-14T13:04:05.035Z,12.63
2019-02-14T13:06:34.784Z,8.27
2019-02-14T13:09:06.991Z,9.90
2019-02-14T13:11:36.628Z,18.23
2019-02-14T13:14:06.859Z,9.90
2019-02-14T13:16:36.551Z,5.30
2019-02-14T13:19:06.847Z,10.33
2019-02-14T13:21:36.723Z,7.70
2019-02-14T13:24:07.091Z,6.70
2019-02-14T13:26:36.631Z,11.97
2019-02-14T13:29:06.956Z,6.80
2019-02-14T13:31:35.916Z,12.10
2019-02-14T13:34:05.912Z,11.10
2019-02-14T13:36:35.716Z,9.83
2019-02-14T13:39:07.479Z,9.90
2019-02-14T13:41:37.187Z,8.10
2019-02-14T13:44:06.999Z,9.57
2019-02-14T13:46:37.056Z,11.13
2019-02-14T13:49:07.054Z,11.73
2019-02-14T13:51:36.669Z,8.93
2019-02-14T13:54:06.661Z,22.30
2019-02-14T13:56:36.577Z,14.87
2019-02-14T13:59:07.446Z,11.17
2019-02-14T14:01:37.454Z,17.20
2019-02-14T14:04:07.165Z,9.07
2019-02-14T14:06:37.335Z,9.10
2019-02-14T14:09:09.907Z,11.10
2019-02-14T14:11:39.718Z,12.67
2019-02-14T14:14:09.713Z,6.63
2019-02-14T14:16:39.597Z,10.27
2019-02-14T14:19:09.241Z,7.10
2019-02-14T14:21:39.084Z,6.67
2019-02-14T14:24:09.658Z,7.90
2019-02-14T14:26:39.504Z,10.63
2019-02-14T14:29:09.091Z,13.23
2019-02-14T14:31:39.835Z,10.97
2019-02-14T14:34:09.644Z,14.03
2019-02-14T14:36:39.458Z,8.53
2019-02-14T14:39:09.171Z,11.70
2019-02-14T14:41:39.010Z,9.67
2019-02-14T14:44:14.423Z,8.93
2019-02-14T14:46:48.847Z,12.67
2019-02-14T14:49:19.854Z,16.63
2019-02-14T14:51:49.554Z,10.80
2019-02-14T14:54:19.831Z,10.67
2019-02-14T14:56:50.492Z,10.03
2019-02-14T14:59:21.179Z,8.10
2019-02-14T15:01:50.797Z,11.33
2019-02-14T15:04:20.572Z,16.23
2019-02-14T15:06:50.410Z,13.57
2019-02-14T15:09:20.245Z,12.13
2019-02-14T15:11:49.926Z,12.57
2019-02-14T15:14:20.476Z,9.00
2019-02-14T15:16:50.866Z,23.43
2019-02-14T15:19:20.595Z,12.10
2019-02-14T15:21:50.419Z,10.37
2019-02-14T15:24:20.806Z,11.07
2019-02-14T15:26:50.610Z,17.00
2019-02-14T15:29:22.727Z,24.00
2019-02-14T15:31:52.798Z,12.27
2019-02-14T15:34:22.459Z,12.43
2019-02-14T15:36:53.289Z,8.53
2019-02-14T15:39:23.089Z,10.03
2019-02-14T15:41:52.898Z,17.70
2019-02-14T15:44:23.699Z,18.67
2019-02-14T15:46:54.103Z,11.27
2019-02-14T15:49:25.450Z,9.50
2019-02-14T15:51:55.323Z,11.33
2019-02-14T15:54:24.999Z,10.47
2019-02-14T15:56:56.551Z,19.13
2019-02-14T15:59:28.849Z,12.60
2019-02-14T16:01:58.862Z,13.53
2019-02-14T16:04:29.412Z,10.27
2019-02-14T16:07:00.419Z,18.00
2019-02-14T16:09:32.004Z,11.50
2019-02-14T16:12:01.727Z,13.57
2019-02-14T16:14:31.942Z,20.33
2019-02-14T16:17:01.684Z,11.93
2019-02-14T16:19:34.495Z,13.97
2019-02-14T16:22:05.485Z,15.30
2019-02-14T16:24:35.277Z,15.37
2019-02-14T16:27:05.098Z,13.10
2019-02-14T16:29:35.863Z,14.03
2019-02-14T16:32:15.027Z,12.57
2019-02-14T16:34:44.890Z,17.70
2019-02-14T16:37:14.933Z,11.63
2019-02-14T16:42:20.424Z,13.70
2019-02-14T16:44:50.469Z,11.30
2019-02-14T16:47:20.495Z,12.77
2019-02-14T16:49:50.414Z,16.10
2019-02-14T16:52:20.215Z,21.37
2019-02-14T16:54:50.287Z,16.23
2019-02-14T16:57:20.055Z,11.43
2019-02-14T16:59:49.936Z,17.30
2019-02-14T17:02:20.390Z,12.30
2019-02-14T17:04:50.141Z,16.57
2019-02-14T17:07:19.983Z,13.13
2019-02-14T17:09:50.023Z,12.20
2019-02-14T17:12:19.777Z,13.27
2019-02-14T17:14:49.561Z,12.43
2019-02-14T17:17:27.738Z,17.27
2019-02-14T17:19:51.056Z,14.93
2019-02-14T17:22:20.975Z,15.40
2019-02-14T17:24:51.496Z,15.47
2019-02-14T17:27:21.789Z,16.37
2019-02-14T17:29:51.586Z,19.47
2019-02-14T17:32:21.527Z,21.07
2019-02-14T17:34:51.569Z,27.00
2019-02-14T17:37:21.730Z,21.17
2019-02-14T17:39:52.903Z,20.00
2019-02-14T17:42:22.823Z,17.67
2019-02-14T17:44:54.864Z,19.30
2019-02-14T17:47:24.974Z,21.13
2019-02-14T17:49:54.900Z,25.73
2019-02-14T17:52:24.895Z,18.37
2019-02-14T17:54:55.456Z,22.03
2019-02-14T17:57:27.325Z,16.93
2019-02-14T17:59:57.123Z,22.80
2019-02-14T18:02:28.712Z,23.97
2019-02-14T18:04:58.509Z,18.77
2019-02-14T18:07:28.203Z,18.57
2019-02-14T18:10:00.842Z,22.93
2019-02-14T18:12:30.634Z,22.47
2019-02-14T18:15:00.422Z,15.97
2019-02-14T18:17:31.420Z,20.60
2019-02-14T18:20:02.113Z,23.07
2019-02-14T18:22:31.995Z,21.97
2019-02-14T18:25:01.902Z,20.50
2019-02-14T18:27:31.608Z,15.33
2019-02-14T18:30:01.738Z,20.90
2019-02-14T18:32:33.641Z,24.97
2019-02-14T18:35:03.425Z,16.70
2019-02-14T18:37:33.327Z,20.97
2019-02-14T18:40:03.644Z,19.57
2019-02-14T18:42:33.503Z,16.47
2019-02-14T18:45:05.325Z,15.80
2019-02-14T18:47:39.766Z,21.30
2019-02-14T18:50:07.499Z,18.57
2019-02-14T18:52:37.460Z,18.23
2019-02-14T18:55:09.033Z,35.90
2019-02-14T18:57:38.854Z,33.07
2019-02-14T19:00:12.016Z,38.07
2019-02-14T19:02:42.780Z,26.77
2019-02-14T19:05:12.505Z,24.63
2019-02-14T19:07:44.104Z,28.27
2019-02-14T19:10:15.067Z,42.70
2019-02-14T19:12:45.281Z,45.17
2019-02-14T19:15:15.454Z,28.60
2019-02-14T19:17:45.391Z,49.47
2019-02-14T19:20:15.126Z,33.67
2019-02-14T19:22:44.902Z,31.07
2019-02-14T19:25:15.324Z,26.30
2019-02-14T19:27:45.221Z,21.13
2019-02-14T19:30:15.394Z,22.33
2019-02-14T19:32:45.347Z,25.67
2019-02-14T19:35:22.793Z,27.23
2019-02-14T19:38:13.687Z,31.50
2019-02-14T19:41:04.494Z,28.83
2019-02-14T19:43:34.502Z,20.90
2019-02-14T19:46:04.688Z,22.00
2019-02-14T19:48:35.148Z,36.37
2019-02-14T19:51:05.212Z,20.67
2019-02-14T19:53:36.411Z,23.77
2019-02-14T19:58:48.602Z,30.30
2019-02-14T20:01:18.644Z,22.10
2019-02-14T20:03:51.095Z,31.17
2019-02-14T20:06:21.291Z,33.07
2019-02-14T20:08:51.231Z,22.37
2019-02-14T20:11:44.704Z,24.23
2019-02-14T20:14:16.331Z,25.20
2019-02-14T20:16:47.085Z,25.87
2019-02-14T20:19:16.967Z,38.37
2019-02-14T20:21:46.609Z,36.53
2019-02-14T20:24:16.919Z,42.77
2019-02-14T20:26:49.229Z,51.10
2019-02-14T20:29:19.431Z,39.80
2019-02-14T20:31:49.046Z,38.20
2019-02-14T20:34:19.288Z,49.07
2019-02-14T20:36:48.953Z,41.97
2019-02-14T20:39:22.487Z,45.13
2019-02-14T20:42:36.066Z,45.77
2019-02-14T20:45:15.310Z,41.93
2019-02-14T20:48:00.553Z,31.80
2019-02-14T20:51:12.735Z,47.83
2019-02-14T20:54:00.806Z,38.80
2019-02-14T20:56:30.646Z,40.17
2019-02-14T20:59:00.574Z,36.10
2019-02-14T21:01:30.214Z,32.90
2019-02-14T21:04:02.898Z,35.00
2019-02-14T21:06:32.853Z,27.97
2019-02-14T21:09:43.828Z,38.37
2019-02-14T21:12:27.328Z,36.97
2019-02-14T21:14:57.175Z,36.27
2019-02-14T21:17:27.324Z,25.83
2019-02-14T21:19:57.189Z,44.20
2019-02-14T21:22:27.090Z,28.97
2019-02-14T21:24:56.942Z,29.17
2019-02-14T21:27:26.694Z,35.63
2019-02-14T21:29:56.671Z,40.83
2019-02-14T21:32:26.547Z,35.80
2019-02-14T21:34:57.281Z,36.80
2019-02-14T21:37:27.216Z,32.90
2019-02-14T21:39:57.097Z,38.67
2019-02-14T21:42:29.316Z,32.40
2019-02-14T21:44:58.274Z,25.87
2019-02-14T21:47:27.944Z,22.53
2019-02-14T21:49:57.899Z,17.73
2019-02-14T21:52:28.589Z,19.10
2019-02-14T21:55:17.266Z,16.53
2019-02-14T21:57:48.420Z,14.13
2019-02-14T22:00:19.301Z,13.93
2019-02-14T22:02:49.900Z,18.07
2019-02-14T22:05:24.995Z,15.33
2019-02-14T22:07:54.114Z,16.23
2019-02-14T22:10:24.236Z,22.17
2019-02-14T22:12:53.925Z,16.80
2019-02-14T22:15:23.780Z,20.10
2019-02-14T22:17:53.331Z,31.83
2019-02-14T22:20:23.468Z,30.33
2019-02-14T22:22:53.295Z,21.17
2019-02-14T22:25:22.972Z,22.40
2019-02-14T22:27:52.982Z,13.83
2019-02-14T22:30:22.931Z,16.70
2019-02-14T22:32:52.500Z,21.10
2019-02-14T22:35:22.314Z,16.60
2019-02-14T22:37:51.957Z,17.17
2019-02-14T22:40:21.713Z,17.30
2019-02-14T22:42:51.485Z,12.60
2019-02-14T22:45:21.442Z,10.97
2019-02-14T22:47:50.979Z,13.10
2019-02-14T22:50:20.838Z,16.93
2019-02-14T22:52:50.475Z,14.37
2019-02-14T22:55:20.211Z,13.43
2019-02-14T22:57:49.813Z,18.30
2019-02-14T23:00:30.077Z,20.23
2019-02-14T23:02:59.955Z,14.67
2019-02-14T23:05:29.475Z,15.63
2019-02-14T23:07:59.097Z,19.03
2019-02-14T23:10:28.902Z,22.60
2019-02-14T23:12:58.654Z,17.23
2019-02-14T23:15:31.913Z,15.70
2019-02-14T23:18:01.676Z,25.70
2019-02-14T23:20:32.578Z,14.30
2019-02-14T23:25:57.947Z,23.80
2019-02-14T23:28:34.623Z,14.83
2019-02-14T23:31:19.477Z,13.73
2019-02-14T23:34:08.023Z,17.33
2019-02-14T23:36:37.643Z,12.53
2019-02-14T23:39:07.955Z,20.63
2019-02-14T23:41:37.552Z,16.67
2019-02-14T23:44:07.299Z,16.90
2019-02-14T23:46:37.108Z,14.53
2019-02-14T23:49:06.899Z,19.43
2019-02-14T23:51:36.484Z,18.27
2019-02-14T23:54:06.161Z,16.23
2019-02-14T23:56:35.879Z,22.47
2019-02-14T23:59:06.033Z,26.07
